Terminal Aerodrome Forecast
Issued by NWS

Current Version | Previous Version | Graphics & Text | Print | Product List | Glossary On
Versions: 1 2 3 4 5 6 7 8 9 10 11 12 13 14 15 16
000
FTUS41 KILN 251130
TAFLUK
TAF
KLUK 251130Z 2512/2612 26003KT P6SM SKC
     FM251600 28009KT P6SM SCT060
     FM260000 VRB02KT P6SM FEW060
     FM260400 00000KT 4SM BR FEW060
     FM260700 00000KT 1SM BR FEW060
      TEMPO 2607/2611 1/4SM FG BKN001=

USA.gov is the U.S. government's official web portal to all federal, state and local government web resources and services.